sensor_id;sensor_type;location;lat;lon;timestamp;temperature;humidity
56725;DHT22;42608;52.776;6.968;2023-04-12T00:00:20;8.10;99.90
56725;DHT22;42608;52.776;6.968;2023-04-12T00:02:45;8.20;99.90
56725;DHT22;42608;52.776;6.968;2023-04-12T00:05:11;8.10;99.90
56725;DHT22;42608;52.776;6.968;2023-04-12T00:07:38;8.10;99.90
56725;DHT22;42608;52.776;6.968;2023-04-12T00:10:07;8.20;99.90
56725;DHT22;42608;52.776;6.968;2023-04-12T00:12:33;8.20;99.90
56725;DHT22;42608;52.776;6.968;2023-04-12T00:14:59;8.20;99.90
56725;DHT22;42608;52.776;6.968;2023-04-12T00:17:26;8.20;99.90
56725;DHT22;42608;52.776;6.968;2023-04-12T00:19:51;8.20;99.90
56725;DHT22;42608;52.776;6.968;2023-04-12T00:22:17;8.20;99.90
56725;DHT22;42608;52.776;6.968;2023-04-12T00:24:42;8.20;99.90
56725;DHT22;42608;52.776;6.968;2023-04-12T00:27:08;8.20;99.90
56725;DHT22;42608;52.776;6.968;2023-04-12T00:29:34;8.20;99.90
56725;DHT22;42608;52.776;6.968;2023-04-12T00:31:59;8.20;99.90
56725;DHT22;42608;52.776;6.968;2023-04-12T00:34:29;8.30;99.90
56725;DHT22;42608;52.776;6.968;2023-04-12T00:36:54;8.30;99.90
56725;DHT22;42608;52.776;6.968;2023-04-12T00:39:20;8.30;99.90
56725;DHT22;42608;52.776;6.968;2023-04-12T00:41:46;8.30;99.90
56725;DHT22;42608;52.776;6.968;2023-04-12T00:44:11;8.30;99.90
56725;DHT22;42608;52.776;6.968;2023-04-12T00:46:37;8.40;99.90
56725;DHT22;42608;52.776;6.968;2023-04-12T00:49:03;8.40;99.90
56725;DHT22;42608;52.776;6.968;2023-04-12T00:51:30;8.40;99.90
56725;DHT22;42608;52.776;6.968;2023-04-12T00:53:58;8.40;99.90
56725;DHT22;42608;52.776;6.968;2023-04-12T00:56:28;8.40;99.90
56725;DHT22;42608;52.776;6.968;2023-04-12T00:58:55;8.50;99.90
56725;DHT22;42608;52.776;6.968;2023-04-12T01:01:21;8.40;99.90
56725;DHT22;42608;52.776;6.968;2023-04-12T01:03:47;8.50;99.90
56725;DHT22;42608;52.776;6.968;2023-04-12T01:06:15;8.50;99.90
56725;DHT22;42608;52.776;6.968;2023-04-12T01:11:36;8.50;99.90
56725;DHT22;42608;52.776;6.968;2023-04-12T01:14:10;8.50;99.90
56725;DHT22;42608;52.776;6.968;2023-04-12T01:16:42;8.50;99.90
56725;DHT22;42608;52.776;6.968;2023-04-12T01:19:32;8.60;99.90
56725;DHT22;42608;52.776;6.968;2023-04-12T01:24:42;8.60;99.90
56725;DHT22;42608;52.776;6.968;2023-04-12T01:27:18;8.60;99.90
56725;DHT22;42608;52.776;6.968;2023-04-12T01:29:47;8.60;99.90
56725;DHT22;42608;52.776;6.968;2023-04-12T01:32:15;8.60;99.90
56725;DHT22;42608;52.776;6.968;2023-04-12T01:34:41;8.60;99.90
56725;DHT22;42608;52.776;6.968;2023-04-12T01:37:08;8.60;99.90
56725;DHT22;42608;52.776;6.968;2023-04-12T01:39:34;8.60;99.90
56725;DHT22;42608;52.776;6.968;2023-04-12T01:41:59;8.60;99.90
56725;DHT22;42608;52.776;6.968;2023-04-12T01:44:25;8.60;99.90
56725;DHT22;42608;52.776;6.968;2023-04-12T01:46:50;8.60;99.90
56725;DHT22;42608;52.776;6.968;2023-04-12T01:49:17;8.60;99.90
56725;DHT22;42608;52.776;6.968;2023-04-12T01:52:17;8.60;99.90
56725;DHT22;42608;52.776;6.968;2023-04-12T01:54:40;8.60;99.90
56725;DHT22;42608;52.776;6.968;2023-04-12T01:57:06;8.60;99.90
56725;DHT22;42608;52.776;6.968;2023-04-12T01:59:42;8.60;99.90
56725;DHT22;42608;52.776;6.968;2023-04-12T02:02:08;8.60;99.90
56725;DHT22;42608;52.776;6.968;2023-04-12T02:04:35;8.60;99.90
56725;DHT22;42608;52.776;6.968;2023-04-12T02:07:01;8.60;99.90
56725;DHT22;42608;52.776;6.968;2023-04-12T02:09:27;8.60;99.90
56725;DHT22;42608;52.776;6.968;2023-04-12T02:11:53;8.60;99.90
56725;DHT22;42608;52.776;6.968;2023-04-12T02:14:18;8.60;99.90
56725;DHT22;42608;52.776;6.968;2023-04-12T02:16:44;8.60;99.90
56725;DHT22;42608;52.776;6.968;2023-04-12T02:19:11;8.60;99.90
56725;DHT22;42608;52.776;6.968;2023-04-12T02:21:40;8.60;99.90
56725;DHT22;42608;52.776;6.968;2023-04-12T02:24:06;8.60;99.90
56725;DHT22;42608;52.776;6.968;2023-04-12T02:26:32;8.60;99.90
56725;DHT22;42608;52.776;6.968;2023-04-12T02:28:57;8.60;99.90
56725;DHT22;42608;52.776;6.968;2023-04-12T02:31:23;8.60;99.90
56725;DHT22;42608;52.776;6.968;2023-04-12T02:33:49;8.50;99.90
56725;DHT22;42608;52.776;6.968;2023-04-12T02:36:14;8.60;99.90
56725;DHT22;42608;52.776;6.968;2023-04-12T02:38:40;8.60;99.90
56725;DHT22;42608;52.776;6.968;2023-04-12T02:41:06;8.60;99.90
56725;DHT22;42608;52.776;6.968;2023-04-12T02:43:31;8.60;99.90
56725;DHT22;42608;52.776;6.968;2023-04-12T02:45:57;8.60;99.90
56725;DHT22;42608;52.776;6.968;2023-04-12T02:48:23;8.60;99.90
56725;DHT22;42608;52.776;6.968;2023-04-12T02:50:48;8.60;99.90
56725;DHT22;42608;52.776;6.968;2023-04-12T02:53:17;8.60;99.90
56725;DHT22;42608;52.776;6.968;2023-04-12T02:55:42;8.60;99.90
56725;DHT22;42608;52.776;6.968;2023-04-12T02:58:09;8.60;99.90
56725;DHT22;42608;52.776;6.968;2023-04-12T03:00:34;8.60;99.90
56725;DHT22;42608;52.776;6.968;2023-04-12T03:03:00;8.60;99.90
56725;DHT22;42608;52.776;6.968;2023-04-12T03:05:27;8.60;99.90
56725;DHT22;42608;52.776;6.968;2023-04-12T03:07:52;8.60;99.90
56725;DHT22;42608;52.776;6.968;2023-04-12T03:10:18;8.60;99.90
56725;DHT22;42608;52.776;6.968;2023-04-12T03:12:43;8.60;99.90
56725;DHT22;42608;52.776;6.968;2023-04-12T03:15:09;8.60;99.90
56725;DHT22;42608;52.776;6.968;2023-04-12T03:17:35;8.60;99.90
56725;DHT22;42608;52.776;6.968;2023-04-12T03:20:07;8.60;99.90
56725;DHT22;42608;52.776;6.968;2023-04-12T03:22:34;8.60;99.90
56725;DHT22;42608;52.776;6.968;2023-04-12T03:25:01;8.60;99.90
56725;DHT22;42608;52.776;6.968;2023-04-12T03:27:27;8.70;99.90
56725;DHT22;42608;52.776;6.968;2023-04-12T03:29:52;8.70;99.90
56725;DHT22;42608;52.776;6.968;2023-04-12T03:32:18;8.60;99.90
56725;DHT22;42608;52.776;6.968;2023-04-12T03:34:45;8.60;99.90
56725;DHT22;42608;52.776;6.968;2023-04-12T03:37:10;8.60;99.90
56725;DHT22;42608;52.776;6.968;2023-04-12T03:39:36;8.60;99.90
56725;DHT22;42608;52.776;6.968;2023-04-12T03:42:01;8.60;99.90
56725;DHT22;42608;52.776;6.968;2023-04-12T03:44:27;8.60;99.90
56725;DHT22;42608;52.776;6.968;2023-04-12T03:46:53;8.60;99.90
56725;DHT22;42608;52.776;6.968;2023-04-12T03:49:19;8.60;99.90
56725;DHT22;42608;52.776;6.968;2023-04-12T03:51:45;8.70;99.90
56725;DHT22;42608;52.776;6.968;2023-04-12T03:54:11;8.60;99.90
56725;DHT22;42608;52.776;6.968;2023-04-12T03:56:37;8.70;99.90
56725;DHT22;42608;52.776;6.968;2023-04-12T03:59:04;8.60;99.90
56725;DHT22;42608;52.776;6.968;2023-04-12T04:01:32;8.60;99.90
56725;DHT22;42608;52.776;6.968;2023-04-12T04:03:58;8.70;99.90
56725;DHT22;42608;52.776;6.968;2023-04-12T04:06:23;8.70;99.90
56725;DHT22;42608;52.776;6.968;2023-04-12T04:08:49;8.70;99.90
56725;DHT22;42608;52.776;6.968;2023-04-12T04:11:14;8.70;99.90
56725;DHT22;42608;52.776;6.968;2023-04-12T04:13:40;8.70;99.90
56725;DHT22;42608;52.776;6.968;2023-04-12T04:16:06;8.70;99.90
56725;DHT22;42608;52.776;6.968;2023-04-12T04:18:34;8.70;99.90
56725;DHT22;42608;52.776;6.968;2023-04-12T04:21:00;8.70;99.90
56725;DHT22;42608;52.776;6.968;2023-04-12T04:23:26;8.70;99.90
56725;DHT22;42608;52.776;6.968;2023-04-12T04:25:53;8.70;99.90
56725;DHT22;42608;52.776;6.968;2023-04-12T04:28:19;8.70;99.90
56725;DHT22;42608;52.776;6.968;2023-04-12T04:30:44;8.60;99.90
56725;DHT22;42608;52.776;6.968;2023-04-12T04:33:13;8.60;99.90
56725;DHT22;42608;52.776;6.968;2023-04-12T04:35:43;8.60;99.90
56725;DHT22;42608;52.776;6.968;2023-04-12T04:38:08;8.60;99.90
56725;DHT22;42608;52.776;6.968;2023-04-12T04:40:37;8.60;99.90
56725;DHT22;42608;52.776;6.968;2023-04-12T04:43:03;8.60;99.90
56725;DHT22;42608;52.776;6.968;2023-04-12T04:45:29;8.60;99.90
56725;DHT22;42608;52.776;6.968;2023-04-12T04:47:55;8.60;99.90
56725;DHT22;42608;52.776;6.968;2023-04-12T04:50:21;8.60;99.90
56725;DHT22;42608;52.776;6.968;2023-04-12T04:52:47;8.60;99.90
56725;DHT22;42608;52.776;6.968;2023-04-12T04:55:13;8.60;99.90
56725;DHT22;42608;52.776;6.968;2023-04-12T04:57:39;8.50;99.90
56725;DHT22;42608;52.776;6.968;2023-04-12T05:00:05;8.50;99.90
56725;DHT22;42608;52.776;6.968;2023-04-12T05:02:35;8.50;99.90
56725;DHT22;42608;52.776;6.968;2023-04-12T05:05:01;8.50;99.90
56725;DHT22;42608;52.776;6.968;2023-04-12T05:07:28;8.50;99.90
56725;DHT22;42608;52.776;6.968;2023-04-12T05:09:54;8.40;99.90
56725;DHT22;42608;52.776;6.968;2023-04-12T05:12:19;8.40;99.90
56725;DHT22;42608;52.776;6.968;2023-04-12T05:14:45;8.40;99.90
56725;DHT22;42608;52.776;6.968;2023-04-12T05:17:11;8.40;99.90
56725;DHT22;42608;52.776;6.968;2023-04-12T05:19:36;8.40;99.90
56725;DHT22;42608;52.776;6.968;2023-04-12T05:22:02;8.40;99.90
56725;DHT22;42608;52.776;6.968;2023-04-12T05:24:27;8.40;99.90
56725;DHT22;42608;52.776;6.968;2023-04-12T05:26:53;8.40;99.90
56725;DHT22;42608;52.776;6.968;2023-04-12T05:29:18;8.40;99.90
56725;DHT22;42608;52.776;6.968;2023-04-12T05:31:44;8.30;99.90
56725;DHT22;42608;52.776;6.968;2023-04-12T05:34:10;8.40;99.90
56725;DHT22;42608;52.776;6.968;2023-04-12T05:36:35;8.30;99.90
56725;DHT22;42608;52.776;6.968;2023-04-12T05:39:01;8.30;99.90
56725;DHT22;42608;52.776;6.968;2023-04-12T05:41:26;8.30;99.90
56725;DHT22;42608;52.776;6.968;2023-04-12T05:43:52;8.30;99.90
56725;DHT22;42608;52.776;6.968;2023-04-12T05:46:17;8.30;99.90
56725;DHT22;42608;52.776;6.968;2023-04-12T05:48:43;8.30;99.90
56725;DHT22;42608;52.776;6.968;2023-04-12T05:51:08;8.30;99.90
56725;DHT22;42608;52.776;6.968;2023-04-12T05:53:34;8.30;99.90
56725;DHT22;42608;52.776;6.968;2023-04-12T05:56:00;8.30;99.90
56725;DHT22;42608;52.776;6.968;2023-04-12T05:58:26;8.30;99.90
56725;DHT22;42608;52.776;6.968;2023-04-12T06:00:51;8.30;99.90
56725;DHT22;42608;52.776;6.968;2023-04-12T06:03:18;8.30;99.90
56725;DHT22;42608;52.776;6.968;2023-04-12T06:05:44;8.30;99.90
56725;DHT22;42608;52.776;6.968;2023-04-12T06:08:09;8.30;99.90
56725;DHT22;42608;52.776;6.968;2023-04-12T06:10:37;8.30;99.90
56725;DHT22;42608;52.776;6.968;2023-04-12T06:13:02;8.30;99.90
56725;DHT22;42608;52.776;6.968;2023-04-12T06:15:28;8.20;99.90
56725;DHT22;42608;52.776;6.968;2023-04-12T06:17:56;8.30;99.90
56725;DHT22;42608;52.776;6.968;2023-04-12T06:20:23;8.30;99.90
56725;DHT22;42608;52.776;6.968;2023-04-12T06:22:49;8.30;99.90
56725;DHT22;42608;52.776;6.968;2023-04-12T06:25:15;8.30;99.90
56725;DHT22;42608;52.776;6.968;2023-04-12T06:27:41;8.20;99.90
56725;DHT22;42608;52.776;6.968;2023-04-12T06:30:06;8.30;99.90
56725;DHT22;42608;52.776;6.968;2023-04-12T06:32:32;8.20;99.90
56725;DHT22;42608;52.776;6.968;2023-04-12T06:34:58;8.30;99.90
56725;DHT22;42608;52.776;6.968;2023-04-12T06:37:23;8.30;99.90
56725;DHT22;42608;52.776;6.968;2023-04-12T06:39:49;8.30;99.90
56725;DHT22;42608;52.776;6.968;2023-04-12T06:42:15;8.20;99.90
56725;DHT22;42608;52.776;6.968;2023-04-12T06:44:41;8.20;99.90
56725;DHT22;42608;52.776;6.968;2023-04-12T06:47:07;8.20;99.90
56725;DHT22;42608;52.776;6.968;2023-04-12T06:49:32;8.20;99.90
56725;DHT22;42608;52.776;6.968;2023-04-12T06:51:58;8.20;99.90
56725;DHT22;42608;52.776;6.968;2023-04-12T06:54:23;8.20;99.90
56725;DHT22;42608;52.776;6.968;2023-04-12T06:56:49;8.20;99.90
56725;DHT22;42608;52.776;6.968;2023-04-12T06:59:14;8.20;99.90
56725;DHT22;42608;52.776;6.968;2023-04-12T07:01:40;8.20;99.90
56725;DHT22;42608;52.776;6.968;2023-04-12T07:04:06;8.20;99.90
56725;DHT22;42608;52.776;6.968;2023-04-12T07:06:31;8.20;99.90
56725;DHT22;42608;52.776;6.968;2023-04-12T07:08:57;8.20;99.90
56725;DHT22;42608;52.776;6.968;2023-04-12T07:11:22;8.20;99.90
56725;DHT22;42608;52.776;6.968;2023-04-12T07:13:48;8.20;99.90
56725;DHT22;42608;52.776;6.968;2023-04-12T07:16:14;8.20;99.90
56725;DHT22;42608;52.776;6.968;2023-04-12T07:18:39;8.20;99.90
56725;DHT22;42608;52.776;6.968;2023-04-12T07:21:05;8.20;99.90
56725;DHT22;42608;52.776;6.968;2023-04-12T07:23:31;8.30;99.90
56725;DHT22;42608;52.776;6.968;2023-04-12T07:26:00;8.20;99.90
56725;DHT22;42608;52.776;6.968;2023-04-12T07:28:26;8.20;99.90
56725;DHT22;42608;52.776;6.968;2023-04-12T07:30:52;8.30;99.90
56725;DHT22;42608;52.776;6.968;2023-04-12T07:33:17;8.20;99.90
56725;DHT22;42608;52.776;6.968;2023-04-12T07:35:43;8.20;99.90
56725;DHT22;42608;52.776;6.968;2023-04-12T07:38:08;8.20;99.90
56725;DHT22;42608;52.776;6.968;2023-04-12T07:40:34;8.30;99.90
56725;DHT22;42608;52.776;6.968;2023-04-12T07:43:00;8.20;99.90
56725;DHT22;42608;52.776;6.968;2023-04-12T07:45:25;8.20;99.90
56725;DHT22;42608;52.776;6.968;2023-04-12T07:47:51;8.30;99.90
56725;DHT22;42608;52.776;6.968;2023-04-12T07:50:17;8.30;99.90
56725;DHT22;42608;52.776;6.968;2023-04-12T07:52:42;8.30;99.90
56725;DHT22;42608;52.776;6.968;2023-04-12T07:55:08;8.30;99.90
56725;DHT22;42608;52.776;6.968;2023-04-12T07:57:34;8.30;99.90
56725;DHT22;42608;52.776;6.968;2023-04-12T08:00:00;8.30;99.90
56725;DHT22;42608;52.776;6.968;2023-04-12T08:02:25;8.30;99.90
56725;DHT22;42608;52.776;6.968;2023-04-12T08:04:54;8.30;99.90
56725;DHT22;42608;52.776;6.968;2023-04-12T08:07:20;8.30;99.90
56725;DHT22;42608;52.776;6.968;2023-04-12T08:09:49;8.30;99.90
56725;DHT22;42608;52.776;6.968;2023-04-12T08:12:15;8.30;99.90
56725;DHT22;42608;52.776;6.968;2023-04-12T08:14:40;8.30;99.90
56725;DHT22;42608;52.776;6.968;2023-04-12T08:17:06;8.30;99.90
56725;DHT22;42608;52.776;6.968;2023-04-12T08:19:32;8.30;99.90
56725;DHT22;42608;52.776;6.968;2023-04-12T08:21:57;8.30;99.90
56725;DHT22;42608;52.776;6.968;2023-04-12T08:24:23;8.30;99.90
56725;DHT22;42608;52.776;6.968;2023-04-12T08:26:52;8.30;99.90
56725;DHT22;42608;52.776;6.968;2023-04-12T08:29:17;8.30;99.90
56725;DHT22;42608;52.776;6.968;2023-04-12T08:31:43;8.40;99.90
56725;DHT22;42608;52.776;6.968;2023-04-12T08:34:09;8.40;99.90
56725;DHT22;42608;52.776;6.968;2023-04-12T08:36:34;8.40;99.90
56725;DHT22;42608;52.776;6.968;2023-04-12T08:39:00;8.30;99.90
56725;DHT22;42608;52.776;6.968;2023-04-12T08:41:26;8.30;99.90
56725;DHT22;42608;52.776;6.968;2023-04-12T08:43:52;8.30;99.90
56725;DHT22;42608;52.776;6.968;2023-04-12T08:46:20;8.30;99.90
56725;DHT22;42608;52.776;6.968;2023-04-12T08:48:49;8.30;99.90
56725;DHT22;42608;52.776;6.968;2023-04-12T08:51:18;8.30;99.90
56725;DHT22;42608;52.776;6.968;2023-04-12T08:53:44;8.40;99.90
56725;DHT22;42608;52.776;6.968;2023-04-12T08:56:10;8.40;99.90
56725;DHT22;42608;52.776;6.968;2023-04-12T08:58:40;8.40;99.90
56725;DHT22;42608;52.776;6.968;2023-04-12T09:01:12;8.50;99.90
56725;DHT22;42608;52.776;6.968;2023-04-12T09:03:41;8.50;99.90
56725;DHT22;42608;52.776;6.968;2023-04-12T09:06:07;8.50;99.90
56725;DHT22;42608;52.776;6.968;2023-04-12T09:08:32;8.40;99.90
56725;DHT22;42608;52.776;6.968;2023-04-12T09:10:58;8.40;99.90
56725;DHT22;42608;52.776;6.968;2023-04-12T09:13:30;8.50;99.90
56725;DHT22;42608;52.776;6.968;2023-04-12T09:15:56;8.50;99.90
56725;DHT22;42608;52.776;6.968;2023-04-12T09:18:22;8.50;99.90
56725;DHT22;42608;52.776;6.968;2023-04-12T09:20:48;8.50;99.90
56725;DHT22;42608;52.776;6.968;2023-04-12T09:23:17;8.50;99.90
56725;DHT22;42608;52.776;6.968;2023-04-12T09:25:43;8.40;99.90
56725;DHT22;42608;52.776;6.968;2023-04-12T09:28:32;8.50;99.90
56725;DHT22;42608;52.776;6.968;2023-04-12T09:30:58;8.50;99.90
56725;DHT22;42608;52.776;6.968;2023-04-12T09:35:59;8.60;99.90
56725;DHT22;42608;52.776;6.968;2023-04-12T09:38:26;8.60;99.90
56725;DHT22;42608;52.776;6.968;2023-04-12T09:40:52;8.60;99.90
56725;DHT22;42608;52.776;6.968;2023-04-12T09:43:18;8.60;99.90
56725;DHT22;42608;52.776;6.968;2023-04-12T09:45:44;8.60;99.90
56725;DHT22;42608;52.776;6.968;2023-04-12T09:48:19;8.70;99.90
56725;DHT22;42608;52.776;6.968;2023-04-12T09:50:57;8.70;99.90
56725;DHT22;42608;52.776;6.968;2023-04-12T09:53:22;8.70;99.90
56725;DHT22;42608;52.776;6.968;2023-04-12T09:55:49;8.70;99.90
56725;DHT22;42608;52.776;6.968;2023-04-12T09:58:16;8.70;99.90
56725;DHT22;42608;52.776;6.968;2023-04-12T10:00:43;8.70;99.90
56725;DHT22;42608;52.776;6.968;2023-04-12T10:03:10;8.70;99.90
56725;DHT22;42608;52.776;6.968;2023-04-12T10:05:36;8.70;99.90
56725;DHT22;42608;52.776;6.968;2023-04-12T10:08:04;8.70;99.90
56725;DHT22;42608;52.776;6.968;2023-04-12T10:10:29;8.80;99.90
56725;DHT22;42608;52.776;6.968;2023-04-12T10:12:55;8.80;99.90
56725;DHT22;42608;52.776;6.968;2023-04-12T10:15:21;8.80;99.90
56725;DHT22;42608;52.776;6.968;2023-04-12T10:17:48;9.00;99.90
56725;DHT22;42608;52.776;6.968;2023-04-12T10:20:14;9.00;99.90
56725;DHT22;42608;52.776;6.968;2023-04-12T10:22:40;9.00;99.90
56725;DHT22;42608;52.776;6.968;2023-04-12T10:25:08;9.10;99.90
56725;DHT22;42608;52.776;6.968;2023-04-12T10:27:34;9.10;99.90
56725;DHT22;42608;52.776;6.968;2023-04-12T10:32:45;9.30;99.90
56725;DHT22;42608;52.776;6.968;2023-04-12T10:35:10;9.30;99.90
56725;DHT22;42608;52.776;6.968;2023-04-12T10:40:31;9.50;99.90
56725;DHT22;42608;52.776;6.968;2023-04-12T10:45:41;9.70;99.90
56725;DHT22;42608;52.776;6.968;2023-04-12T10:48:07;9.80;99.90
56725;DHT22;42608;52.776;6.968;2023-04-12T10:50:32;9.90;99.90
56725;DHT22;42608;52.776;6.968;2023-04-12T10:55:37;10.10;99.90
56725;DHT22;42608;52.776;6.968;2023-04-12T10:58:03;10.10;99.90
56725;DHT22;42608;52.776;6.968;2023-04-12T11:01:14;10.20;99.90
56725;DHT22;42608;52.776;6.968;2023-04-12T11:03:14;10.20;99.90
56725;DHT22;42608;52.776;6.968;2023-04-12T11:05:59;10.20;99.90
56725;DHT22;42608;52.776;6.968;2023-04-12T11:08:27;10.30;99.90
56725;DHT22;42608;52.776;6.968;2023-04-12T11:11:02;10.30;99.90
56725;DHT22;42608;52.776;6.968;2023-04-12T11:13:30;10.40;99.90
56725;DHT22;42608;52.776;6.968;2023-04-12T11:16:00;10.40;99.90
56725;DHT22;42608;52.776;6.968;2023-04-12T11:18:26;10.40;99.90
56725;DHT22;42608;52.776;6.968;2023-04-12T11:20:52;10.50;99.90
56725;DHT22;42608;52.776;6.968;2023-04-12T11:23:18;10.50;99.90
56725;DHT22;42608;52.776;6.968;2023-04-12T11:25:48;10.60;99.90
56725;DHT22;42608;52.776;6.968;2023-04-12T11:28:16;10.60;99.90
56725;DHT22;42608;52.776;6.968;2023-04-12T11:30:51;10.70;99.90
56725;DHT22;42608;52.776;6.968;2023-04-12T11:33:33;10.70;99.90
56725;DHT22;42608;52.776;6.968;2023-04-12T11:36:02;10.70;99.90
56725;DHT22;42608;52.776;6.968;2023-04-12T11:38:27;10.70;99.90
56725;DHT22;42608;52.776;6.968;2023-04-12T11:40:53;10.80;99.90
56725;DHT22;42608;52.776;6.968;2023-04-12T11:43:19;10.90;99.90
56725;DHT22;42608;52.776;6.968;2023-04-12T11:45:45;11.00;99.90
56725;DHT22;42608;52.776;6.968;2023-04-12T11:48:10;11.00;99.90
56725;DHT22;42608;52.776;6.968;2023-04-12T11:50:36;11.10;99.90
56725;DHT22;42608;52.776;6.968;2023-04-12T11:53:10;11.10;99.90
56725;DHT22;42608;52.776;6.968;2023-04-12T11:55:36;11.20;99.90
56725;DHT22;42608;52.776;6.968;2023-04-12T11:58:02;11.40;99.90
56725;DHT22;42608;52.776;6.968;2023-04-12T12:00:27;11.40;99.90
56725;DHT22;42608;52.776;6.968;2023-04-12T12:02:55;11.40;99.90
56725;DHT22;42608;52.776;6.968;2023-04-12T12:05:21;11.50;99.90
56725;DHT22;42608;52.776;6.968;2023-04-12T12:07:47;11.50;99.90
56725;DHT22;42608;52.776;6.968;2023-04-12T12:10:13;11.50;99.90
56725;DHT22;42608;52.776;6.968;2023-04-12T12:12:41;11.40;99.90
56725;DHT22;42608;52.776;6.968;2023-04-12T12:15:07;11.50;99.90
56725;DHT22;42608;52.776;6.968;2023-04-12T12:17:36;11.60;99.90
56725;DHT22;42608;52.776;6.968;2023-04-12T12:20:04;11.70;99.90
56725;DHT22;42608;52.776;6.968;2023-04-12T12:22:31;11.90;99.90
56725;DHT22;42608;52.776;6.968;2023-04-12T12:24:57;12.00;99.90
56725;DHT22;42608;52.776;6.968;2023-04-12T12:27:33;12.10;99.90
56725;DHT22;42608;52.776;6.968;2023-04-12T12:30:00;12.30;99.90
56725;DHT22;42608;52.776;6.968;2023-04-12T12:32:30;12.40;99.90
56725;DHT22;42608;52.776;6.968;2023-04-12T12:34:57;12.50;99.90
56725;DHT22;42608;52.776;6.968;2023-04-12T12:37:23;12.60;99.90
56725;DHT22;42608;52.776;6.968;2023-04-12T12:39:59;12.70;99.90
56725;DHT22;42608;52.776;6.968;2023-04-12T12:42:24;12.80;99.90
56725;DHT22;42608;52.776;6.968;2023-04-12T12:44:51;12.80;99.90
56725;DHT22;42608;52.776;6.968;2023-04-12T12:47:16;13.00;99.90
56725;DHT22;42608;52.776;6.968;2023-04-12T12:49:42;13.10;99.90
56725;DHT22;42608;52.776;6.968;2023-04-12T12:52:07;13.20;99.90
56725;DHT22;42608;52.776;6.968;2023-04-12T12:54:33;13.30;99.90
56725;DHT22;42608;52.776;6.968;2023-04-12T12:57:00;13.30;99.90
56725;DHT22;42608;52.776;6.968;2023-04-12T12:59:26;13.40;99.90
56725;DHT22;42608;52.776;6.968;2023-04-12T13:01:51;13.40;99.90
56725;DHT22;42608;52.776;6.968;2023-04-12T13:04:17;13.40;99.90
56725;DHT22;42608;52.776;6.968;2023-04-12T13:06:42;13.40;99.90
56725;DHT22;42608;52.776;6.968;2023-04-12T13:09:08;13.30;99.90
56725;DHT22;42608;52.776;6.968;2023-04-12T13:11:33;13.20;99.90
56725;DHT22;42608;52.776;6.968;2023-04-12T13:13:59;13.30;99.90
56725;DHT22;42608;52.776;6.968;2023-04-12T13:16:25;13.20;99.90
56725;DHT22;42608;52.776;6.968;2023-04-12T13:18:50;13.20;99.90
56725;DHT22;42608;52.776;6.968;2023-04-12T13:21:16;13.10;99.90
56725;DHT22;42608;52.776;6.968;2023-04-12T13:23:41;13.00;99.90
56725;DHT22;42608;52.776;6.968;2023-04-12T13:26:07;12.90;99.90
56725;DHT22;42608;52.776;6.968;2023-04-12T13:28:32;12.90;99.90
56725;DHT22;42608;52.776;6.968;2023-04-12T13:30:58;12.80;99.90
56725;DHT22;42608;52.776;6.968;2023-04-12T13:33:23;12.70;99.90
56725;DHT22;42608;52.776;6.968;2023-04-12T13:35:49;12.70;99.90
56725;DHT22;42608;52.776;6.968;2023-04-12T13:38:15;12.70;99.90
56725;DHT22;42608;52.776;6.968;2023-04-12T13:40:40;12.60;99.90
56725;DHT22;42608;52.776;6.968;2023-04-12T13:43:06;12.60;99.90
56725;DHT22;42608;52.776;6.968;2023-04-12T13:45:32;12.50;99.90
56725;DHT22;42608;52.776;6.968;2023-04-12T13:47:58;12.50;99.90
56725;DHT22;42608;52.776;6.968;2023-04-12T13:50:24;12.40;99.90
56725;DHT22;42608;52.776;6.968;2023-04-12T13:52:50;12.30;99.90
56725;DHT22;42608;52.776;6.968;2023-04-12T13:55:15;12.20;99.90
56725;DHT22;42608;52.776;6.968;2023-04-12T13:57:41;12.20;99.90
56725;DHT22;42608;52.776;6.968;2023-04-12T14:00:07;11.90;99.90
56725;DHT22;42608;52.776;6.968;2023-04-12T14:02:33;11.70;99.90
56725;DHT22;42608;52.776;6.968;2023-04-12T14:04:59;11.40;99.90
56725;DHT22;42608;52.776;6.968;2023-04-12T14:07:25;11.10;99.90
56725;DHT22;42608;52.776;6.968;2023-04-12T14:09:52;11.00;99.90
56725;DHT22;42608;52.776;6.968;2023-04-12T14:12:20;10.80;99.90
56725;DHT22;42608;52.776;6.968;2023-04-12T14:14:45;10.50;99.90
56725;DHT22;42608;52.776;6.968;2023-04-12T14:17:11;10.30;99.90
56725;DHT22;42608;52.776;6.968;2023-04-12T14:19:36;10.20;99.90
56725;DHT22;42608;52.776;6.968;2023-04-12T14:22:02;10.20;99.90
56725;DHT22;42608;52.776;6.968;2023-04-12T14:24:28;10.20;99.90
56725;DHT22;42608;52.776;6.968;2023-04-12T14:26:53;10.10;99.90
56725;DHT22;42608;52.776;6.968;2023-04-12T14:29:19;10.10;99.90
56725;DHT22;42608;52.776;6.968;2023-04-12T14:31:45;10.20;99.90
56725;DHT22;42608;52.776;6.968;2023-04-12T14:34:11;10.10;99.90
56725;DHT22;42608;52.776;6.968;2023-04-12T14:36:37;10.20;99.90
56725;DHT22;42608;52.776;6.968;2023-04-12T14:39:03;10.10;99.90
56725;DHT22;42608;52.776;6.968;2023-04-12T14:41:29;10.20;99.90
56725;DHT22;42608;52.776;6.968;2023-04-12T14:43:55;10.20;99.90
56725;DHT22;42608;52.776;6.968;2023-04-12T14:46:21;10.20;99.90
56725;DHT22;42608;52.776;6.968;2023-04-12T14:48:47;10.20;99.90
56725;DHT22;42608;52.776;6.968;2023-04-12T14:51:13;10.20;99.90
56725;DHT22;42608;52.776;6.968;2023-04-12T14:53:39;10.30;99.90
56725;DHT22;42608;52.776;6.968;2023-04-12T14:56:14;10.30;99.90
56725;DHT22;42608;52.776;6.968;2023-04-12T14:58:41;10.40;99.90
56725;DHT22;42608;52.776;6.968;2023-04-12T15:01:09;10.50;99.90
56725;DHT22;42608;52.776;6.968;2023-04-12T15:03:35;10.80;99.90
56725;DHT22;42608;52.776;6.968;2023-04-12T15:06:00;11.00;99.90
56725;DHT22;42608;52.776;6.968;2023-04-12T15:08:26;11.00;99.90
56725;DHT22;42608;52.776;6.968;2023-04-12T15:10:53;11.20;99.90
56725;DHT22;42608;52.776;6.968;2023-04-12T15:13:18;11.40;99.90
56725;DHT22;42608;52.776;6.968;2023-04-12T15:15:45;11.50;99.90
56725;DHT22;42608;52.776;6.968;2023-04-12T15:18:11;11.50;99.90
56725;DHT22;42608;52.776;6.968;2023-04-12T15:20:37;11.50;99.90
56725;DHT22;42608;52.776;6.968;2023-04-12T15:23:02;11.40;99.90
56725;DHT22;42608;52.776;6.968;2023-04-12T15:25:28;11.50;99.90
56725;DHT22;42608;52.776;6.968;2023-04-12T15:27:55;11.50;99.90
56725;DHT22;42608;52.776;6.968;2023-04-12T15:30:20;11.50;99.90
56725;DHT22;42608;52.776;6.968;2023-04-12T15:32:46;11.50;99.90
56725;DHT22;42608;52.776;6.968;2023-04-12T15:35:13;11.40;99.90
56725;DHT22;42608;52.776;6.968;2023-04-12T15:37:38;11.30;99.90
56725;DHT22;42608;52.776;6.968;2023-04-12T15:40:04;11.30;99.90
56725;DHT22;42608;52.776;6.968;2023-04-12T15:42:40;11.30;99.90
56725;DHT22;42608;52.776;6.968;2023-04-12T15:45:08;11.20;99.90
56725;DHT22;42608;52.776;6.968;2023-04-12T15:47:33;11.20;99.90
56725;DHT22;42608;52.776;6.968;2023-04-12T15:49:59;11.20;99.90
56725;DHT22;42608;52.776;6.968;2023-04-12T15:52:24;11.10;99.90
56725;DHT22;42608;52.776;6.968;2023-04-12T15:54:50;11.10;99.90